Time;durP1;ratioP1;P1;durP2;ratioP2;P2;SDS_P1;SDS_P2;PMS_P1;PMS_P2;Temp;Humidity;BMP_temperature;BMP_pressure;BME280_temperature;BME280_humidity;BME280_pressure;Samples;Min_cycle;Max_cycle;Signal;HPM_P1;HPM_P2
2021/12/30 03:22:40;;;;;;;;;;;12.50;99.90;;;10.52;100.00;100863.13;1208095;30;845731752;31
2021/12/30 03:25:11;;;;;;;15.52;3.03;;;12.00;99.90;;;10.55;100.00;100861.84;2567472;30;137538;-38
2021/12/30 03:27:39;;;;;;;13.32;3.20;;;12.00;99.90;;;10.55;100.00;100851.78;2566515;30;137472;-38
2021/12/30 03:30:12;;;;;;;14.60;3.50;;;12.00;99.90;;;10.56;100.00;100845.28;2567334;30;139059;-38
2021/12/30 03:32:40;;;;;;;10.43;3.25;;;12.10;99.90;;;10.54;100.00;100846.53;2568368;30;137394;-38
2021/12/30 03:35:08;;;;;;;13.80;3.53;;;12.00;99.90;;;10.55;100.00;100846.31;2567638;30;139075;-38
2021/12/30 03:37:38;;;;;;;14.38;3.70;;;12.00;99.90;;;10.53;100.00;100844.84;2567686;30;138273;-38
2021/12/30 03:40:11;;;;;;;13.90;3.72;;;12.00;99.90;;;10.55;100.00;100846.31;2567294;30;137457;-38
2021/12/30 03:42:39;;;;;;;13.82;4.40;;;12.00;99.90;;;10.57;100.00;100865.19;2569078;30;137165;-38
2021/12/30 03:45:09;;;;;;;14.20;4.22;;;12.00;99.90;;;10.63;100.00;100856.19;2567212;30;138267;-38
2021/12/30 03:47:42;;;;;;;15.50;4.38;;;12.10;99.90;;;10.60;100.00;100859.31;2568793;30;137503;-38
2021/12/30 03:50:20;;;;;;;13.93;4.55;;;12.10;99.90;;;10.67;100.00;100857.44;2568915;30;137279;-38
2021/12/30 03:52:55;;;;;;;12.98;4.50;;;12.10;99.90;;;10.69;100.00;100854.47;2568477;30;137599;-38
2021/12/30 03:55:24;;;;;;;12.63;4.75;;;12.10;99.90;;;10.68;100.00;100853.66;2567509;30;138189;-38
2021/12/30 03:57:53;;;;;;;13.13;4.93;;;12.10;99.90;;;10.63;100.00;100869.81;2568189;30;136699;-38
2021/12/30 04:00:24;;;;;;;13.98;5.25;;;12.10;99.90;;;10.65;100.00;100865.81;2567345;30;138310;-38
2021/12/30 04:02:52;;;;;;;12.32;4.82;;;12.10;99.90;;;10.65;100.00;100863.09;2567371;30;137460;-38
2021/12/30 04:05:21;;;;;;;14.57;5.75;;;12.10;99.90;;;10.68;100.00;100869.16;2564998;30;138344;-38
2021/12/30 04:07:49;;;;;;;11.43;5.80;;;12.10;99.90;;;10.65;100.00;100874.00;2568015;30;136832;-38
2021/12/30 04:10:23;;;;;;;15.85;6.03;;;12.10;99.90;;;10.69;100.00;100871.69;2566075;30;139122;-38
2021/12/30 04:12:53;;;;;;;13.43;6.53;;;12.10;99.90;;;10.69;100.00;100887.22;2567935;30;137546;-38
2021/12/30 04:15:21;;;;;;;13.88;5.68;;;12.20;99.90;;;10.72;100.00;100875.88;2566743;30;137246;-38
2021/12/30 04:17:48;;;;;;;12.48;5.53;;;12.20;99.90;;;10.76;100.00;100868.97;2566725;30;137031;-38
2021/12/30 04:20:16;;;;;;;11.38;5.35;;;12.20;99.90;;;10.78;100.00;100864.94;2568533;30;137332;-38
2021/12/30 04:22:44;;;;;;;11.65;5.10;;;12.20;99.90;;;10.77;100.00;100868.72;2568296;30;137524;-38
2021/12/30 04:25:15;;;;;;;11.05;5.20;;;12.20;99.90;;;10.83;100.00;100877.13;2567726;30;137443;-38
2021/12/30 04:27:44;;;;;;;10.18;4.60;;;12.30;99.90;;;10.76;100.00;100872.50;2567839;30;136821;-38
2021/12/30 04:30:15;;;;;;;10.07;4.50;;;12.20;99.90;;;10.75;100.00;100867.28;2567342;30;138278;-38
2021/12/30 04:32:44;;;;;;;9.48;4.05;;;12.20;99.90;;;10.68;100.00;100861.84;2567814;30;137156;-38
2021/12/30 04:35:13;;;;;;;7.80;4.20;;;12.20;99.90;;;10.69;100.00;100870.84;2567501;30;139044;-38
2021/12/30 04:37:41;;;;;;;9.20;4.18;;;12.20;99.90;;;10.67;100.00;100868.34;2567343;30;137457;-38
2021/12/30 04:40:11;;;;;;;10.30;4.28;;;12.20;99.90;;;10.68;100.00;100861.84;2567894;30;137515;-38
2021/12/30 04:42:39;;;;;;;8.10;3.97;;;12.20;99.90;;;10.66;100.00;100863.94;2568066;30;137651;-38
2021/12/30 04:45:09;;;;;;;8.65;3.47;;;12.10;99.90;;;10.66;100.00;100866.66;2568162;30;138098;-38
2021/12/30 04:47:40;;;;;;;7.25;3.50;;;12.10;99.90;;;10.68;100.00;100864.56;2566208;30;136652;-38
2021/12/30 04:50:11;;;;;;;8.50;3.53;;;12.20;99.90;;;10.65;100.00;100871.28;2568039;30;138539;-38
2021/12/30 04:52:39;;;;;;;6.93;3.30;;;12.10;99.90;;;10.69;100.00;100863.50;2567301;30;137483;-38
2021/12/30 04:55:08;;;;;;;8.45;3.33;;;12.20;99.90;;;10.68;100.00;100852.78;2565492;30;137816;-38
2021/12/30 04:57:36;;;;;;;6.63;3.17;;;12.20;99.90;;;10.76;100.00;100860.78;2566937;30;137409;-37
2021/12/30 05:00:09;;;;;;;7.32;3.42;;;12.20;99.90;;;10.82;100.00;100861.78;2566356;30;137286;-38
2021/12/30 05:05:47;;;;;;;9.15;3.60;;;12.30;99.90;;;10.91;100.00;100866.00;2567059;30;138318;-38
2021/12/30 05:08:18;;;;;;;7.93;3.30;;;12.40;99.90;;;11.05;100.00;100875.81;2567037;30;137360;-38
2021/12/30 05:10:47;;;;;;;6.78;3.15;;;12.40;99.90;;;11.08;100.00;100869.91;2568674;30;138309;-38
2021/12/30 05:13:16;;;;;;;6.97;3.40;;;12.50;99.90;;;11.11;100.00;100871.38;2567956;30;137529;-38
2021/12/30 05:15:44;;;;;;;6.57;3.08;;;12.50;99.90;;;11.10;100.00;100869.72;2568527;30;138265;-38
2021/12/30 05:18:13;;;;;;;5.57;2.78;;;12.60;99.90;;;11.16;100.00;100868.03;2567442;30;136947;-38
2021/12/30 05:20:42;;;;;;;7.57;3.65;;;12.60;99.90;;;11.26;100.00;100873.00;2566416;30;137782;-38
2021/12/30 05:23:11;;;;;;;6.60;2.97;;;12.60;99.90;;;11.36;100.00;100879.69;2568830;30;137497;-38
2021/12/30 05:25:38;;;;;;;5.95;3.00;;;12.70;99.90;;;11.43;100.00;100876.94;2567194;30;137391;-37
2021/12/30 05:28:06;;;;;;;6.13;2.88;;;12.80;99.90;;;11.47;100.00;100869.16;2568031;30;137359;-38
2021/12/30 05:30:34;;;;;;;5.28;2.70;;;12.90;99.90;;;11.51;100.00;100870.38;2565896;30;138723;-38
2021/12/30 05:33:01;;;;;;;5.00;2.58;;;12.90;99.90;;;11.52;100.00;100870.16;2568899;30;138277;-38
2021/12/30 05:35:29;;;;;;;4.80;2.47;;;13.00;99.90;;;11.59;100.00;100869.31;2565106;30;137155;-38
2021/12/30 05:37:57;;;;;;;4.78;2.55;;;13.00;99.90;;;11.65;100.00;100877.44;2568660;30;137590;-38
2021/12/30 05:40:24;;;;;;;5.22;2.28;;;13.00;99.90;;;11.66;100.00;100875.56;2569632;30;139265;-38
2021/12/30 05:42:52;;;;;;;4.72;1.92;;;13.10;99.90;;;11.66;100.00;100873.66;2570079;30;138232;-38
2021/12/30 05:45:20;;;;;;;5.07;2.38;;;13.10;99.90;;;11.78;100.00;100876.53;2567055;30;137430;-38
2021/12/30 05:47:51;;;;;;;4.85;2.20;;;13.20;99.90;;;11.82;100.00;100879.69;2569073;30;136966;-38
2021/12/30 05:50:24;;;;;;;4.28;2.30;;;13.20;99.90;;;11.83;100.00;100880.53;2568131;30;139252;-38
2021/12/30 05:52:52;;;;;;;4.65;2.50;;;13.30;99.90;;;11.84;100.00;100877.56;2566592;30;137503;-38
2021/12/30 05:55:20;;;;;;;5.22;2.55;;;13.30;99.90;;;11.87;100.00;100879.84;2568236;30;138414;-38
2021/12/30 05:57:50;;;;;;;5.45;2.20;;;13.30;99.90;;;11.89;100.00;100883.19;2568026;30;137296;-38
2021/12/30 06:00:22;;;;;;;4.70;2.60;;;13.30;99.90;;;11.87;100.00;100877.13;2569040;30;137474;-38
2021/12/30 06:02:50;;;;;;;3.50;2.13;;;13.30;99.90;;;11.91;100.00;100893.94;2567916;30;137110;-38
2021/12/30 06:05:19;;;;;;;3.63;2.08;;;13.30;99.90;;;11.91;100.00;100892.03;2568407;30;138163;-38
2021/12/30 06:07:46;;;;;;;;;;;13.40;99.90;;;11.92;100.00;100899.16;2565447;30;137391;-38
2021/12/30 06:10:14;;;;;;;3.50;2.00;;;13.40;99.90;;;11.95;100.00;100900.63;2568612;30;137917;-38
2021/12/30 06:12:43;;;;;;;4.72;2.50;;;13.40;99.90;;;12.00;100.00;100902.72;2568521;30;137418;-38
2021/12/30 06:15:12;;;;;;;4.75;2.55;;;13.40;99.90;;;12.03;100.00;100907.78;2569420;30;137437;-38
2021/12/30 06:17:41;;;;;;;4.00;2.53;;;13.40;99.90;;;12.09;100.00;100909.63;2565202;30;138375;-38
2021/12/30 06:20:13;;;;;;;4.18;2.42;;;13.50;99.90;;;12.16;100.00;100921.34;2569061;30;137195;-38
2021/12/30 06:22:44;;;;;;;3.53;2.08;;;13.50;99.90;;;12.13;100.00;100927.25;2568150;30;137146;-38
2021/12/30 06:25:12;;;;;;;3.85;2.10;;;13.60;99.90;;;12.10;100.00;100918.69;2568158;30;139415;-39
2021/12/30 06:27:40;;;;;;;4.80;2.13;;;13.60;99.90;;;12.15;100.00;100925.13;2567233;30;137416;-38
2021/12/30 06:30:10;;;;;;;4.32;2.20;;;13.60;99.90;;;12.15;100.00;100932.53;2568803;30;138357;-38
2021/12/30 06:32:38;;;;;;;3.20;1.77;;;13.60;99.90;;;12.20;100.00;100936.28;2568401;30;138065;-38
2021/12/30 06:35:08;;;;;;;2.95;1.70;;;13.60;99.90;;;12.25;100.00;100938.31;2567217;30;137382;-38
2021/12/30 06:37:38;;;;;;;3.17;1.73;;;13.70;99.90;;;12.24;100.00;100922.97;2566375;30;137421;-38
2021/12/30 06:40:09;;;;;;;4.03;1.88;;;13.70;99.90;;;12.28;100.00;100931.59;2567987;30;138175;-38
2021/12/30 06:42:37;;;;;;;2.30;1.30;;;13.70;99.90;;;12.29;100.00;100936.00;2565352;30;137544;-38
2021/12/30 06:45:06;;;;;;;3.40;1.60;;;13.70;99.90;;;12.29;100.00;100936.00;2566428;30;137164;-38
2021/12/30 06:47:34;;;;;;;3.28;1.50;;;13.70;99.90;;;12.32;100.00;100924.63;2569333;30;137465;-38
2021/12/30 06:50:03;;;;;;;4.78;1.38;;;13.70;99.90;;;12.35;100.00;100935.97;2568364;30;137505;-38
2021/12/30 06:52:30;;;;;;;1.60;1.00;;;13.70;99.90;;;12.37;100.00;100931.09;2565722;30;137473;-38
2021/12/30 06:54:58;;;;;;;;;;;13.80;99.90;;;12.37;100.00;100927.50;2568558;30;138418;-38
2021/12/30 06:57:28;;;;;;;1.73;0.90;;;13.80;99.90;;;12.42;100.00;100935.06;2568392;30;137114;-38
2021/12/30 06:59:57;;;;;;;1.75;0.93;;;13.80;99.90;;;12.43;100.00;100923.88;2567446;30;139193;-38
2021/12/30 07:02:24;;;;;;;2.08;1.10;;;13.80;99.90;;;12.45;100.00;100929.16;2567785;30;137468;-38
2021/12/30 07:04:52;;;;;;;;;;;13.90;99.90;;;12.47;100.00;100927.88;2567786;30;137280;-38
2021/12/30 07:07:19;;;;;;;2.55;1.00;;;13.90;99.90;;;12.49;100.00;100941.31;2568238;30;137958;-40
2021/12/30 07:09:47;;;;;;;1.58;0.98;;;13.90;99.90;;;12.44;100.00;100952.09;2567766;30;138359;-38
2021/12/30 07:12:15;;;;;;;2.83;1.05;;;13.90;99.90;;;12.49;100.00;100947.66;2568037;30;137523;-38
2021/12/30 07:14:43;;;;;;;2.40;1.13;;;13.90;99.90;;;12.42;100.00;100957.78;2567030;30;139070;-38
2021/12/30 07:17:11;;;;;;;2.35;1.10;;;13.90;99.90;;;12.48;100.00;100956.06;2565458;30;137403;-38
2021/12/30 07:19:38;;;;;;;;;;;13.90;99.90;;;12.50;100.00;100962.16;2569112;30;136939;-38
2021/12/30 07:22:06;;;;;;;2.67;1.20;;;13.90;99.90;;;12.51;100.00;100961.94;2568400;30;137121;-41
2021/12/30 07:24:51;;;;;;;1.65;1.08;;;13.90;99.90;;;12.52;100.00;100966.34;2567491;30;138336;-38
2021/12/30 07:27:18;;;;;;;2.33;1.30;;;13.90;99.90;;;12.46;100.00;100969.94;2568468;30;137234;-38
2021/12/30 07:29:46;;;;;;;3.80;1.58;;;13.90;99.90;;;12.43;100.00;100980.53;2567238;30;138463;-38
2021/12/30 07:32:13;;;;;;;2.40;1.35;;;13.90;99.90;;;12.43;100.00;100988.72;2566201;30;137150;-38
2021/12/30 07:34:41;;;;;;;2.08;1.23;;;13.80;99.90;;;12.40;100.00;100986.44;2567008;30;137894;-39
2021/12/30 07:37:08;;;;;;;2.20;1.35;;;13.80;99.90;;;12.40;100.00;100989.16;2566974;30;136784;-38
2021/12/30 07:39:35;;;;;;;2.53;1.48;;;13.80;99.90;;;12.39;100.00;100993.78;2564907;30;139409;-38
2021/12/30 07:42:03;;;;;;;2.85;1.52;;;13.80;99.90;;;12.48;100.00;101002.56;2567660;30;137080;-38
2021/12/30 07:44:31;;;;;;;3.60;1.65;;;13.90;99.90;;;12.45;100.00;101006.59;2566758;30;137498;-40
2021/12/30 07:47:16;;;;;;;2.67;1.50;;;13.90;99.90;;;12.48;100.00;101017.13;2568170;30;138067;-38
2021/12/30 07:49:43;;;;;;;;;;;13.90;99.90;;;12.46;100.00;101019.19;2568966;30;138326;-38
2021/12/30 07:52:11;;;;;;;2.53;1.27;;;13.90;99.90;;;12.47;100.00;101026.38;2567507;30;138065;-38
2021/12/30 07:54:38;;;;;;;3.30;1.52;;;13.90;99.90;;;12.46;100.00;101032.88;2567845;30;138196;-38
2021/12/30 07:57:06;;;;;;;2.67;1.30;;;13.90;99.90;;;12.44;100.00;101029.53;2567544;30;136684;-38
2021/12/30 07:59:33;;;;;;;4.20;1.63;;;13.90;99.90;;;12.43;100.00;101041.53;2568672;30;138503;-38
2021/12/30 08:02:01;;;;;;;2.55;1.27;;;13.90;99.90;;;12.42;100.00;101050.81;2567234;30;137336;-38
2021/12/30 08:04:28;;;;;;;2.80;1.58;;;13.90;99.90;;;12.45;100.00;101049.53;2567351;30;139609;-38
2021/12/30 08:06:56;;;;;;;4.22;1.80;;;13.90;99.90;;;12.44;100.00;101050.59;2566339;30;137560;-38
2021/12/30 08:09:24;;;;;;;2.72;1.52;;;13.90;99.90;;;12.46;100.00;101049.31;2567919;30;137266;-38
2021/12/30 08:11:51;;;;;;;;;;;13.90;99.90;;;12.43;100.00;101052.47;2568233;30;138320;-38
2021/12/30 08:14:19;;;;;;;2.22;1.38;;;13.90;99.90;;;12.42;100.00;101049.97;2566474;30;137467;-38
2021/12/30 08:16:46;;;;;;;2.05;1.10;;;13.80;99.90;;;12.43;100.00;101060.69;2567273;30;137296;-38
2021/12/30 08:19:14;;;;;;;2.13;1.10;;;13.80;99.90;;;12.42;100.00;101067.22;2568513;30;137306;-38
2021/12/30 08:21:42;;;;;;;3.00;1.38;;;13.80;99.90;;;12.41;100.00;101064.72;2564910;30;137871;-38
2021/12/30 08:24:10;;;;;;;;;;;13.80;99.90;;;12.42;100.00;101066.41;2567409;30;138320;-38
2021/12/30 08:26:39;;;;;;;2.25;1.13;;;13.80;99.90;;;12.42;100.00;101066.41;2567833;30;137088;-38
2021/12/30 08:29:07;;;;;;;2.55;1.30;;;13.90;99.90;;;12.43;100.00;101071.63;2568212;30;139115;-38
2021/12/30 08:31:36;;;;;;;3.00;1.25;;;13.80;99.90;;;12.40;100.00;101069.34;2567865;30;138373;-38
2021/12/30 08:34:05;;;;;;;3.35;1.52;;;13.80;99.90;;;12.39;100.00;101075.06;2568076;30;138358;-38
2021/12/30 08:36:33;;;;;;;2.90;1.27;;;13.80;99.90;;;12.39;100.00;101073.13;2567274;30;136979;-38
2021/12/30 08:39:01;;;;;;;3.50;1.40;;;13.80;99.90;;;12.35;100.00;101063.69;2567728;30;138215;-38
2021/12/30 08:41:29;;;;;;;2.80;1.70;;;13.80;99.90;;;12.35;100.00;101091.91;2566032;30;136772;-38
2021/12/30 08:43:56;;;;;;;2.78;1.52;;;13.80;99.90;;;12.32;100.00;101088.75;2568593;30;138305;-38
2021/12/30 08:46:24;;;;;;;3.83;1.27;;;13.70;99.90;;;12.34;100.00;101086.63;2567031;30;137721;-38
2021/12/30 08:48:51;;;;;;;;;;;13.70;99.90;;;12.33;100.00;101098.63;2568531;30;138192;-38
2021/12/30 08:51:19;;;;;;;3.65;1.40;;;13.80;99.90;;;12.32;100.00;101095.06;2569007;30;136961;-38
2021/12/30 08:53:47;;;;;;;4.93;1.67;;;13.70;99.90;;;12.34;100.00;101097.59;2568321;30;137519;-38
2021/12/30 08:56:14;;;;;;;3.20;1.52;;;13.70;99.90;;;12.33;100.00;101095.91;2567612;30;137125;-38
2021/12/30 08:58:42;;;;;;;2.38;1.40;;;13.70;99.90;;;12.36;100.00;101096.31;2567985;30;138457;-38
2021/12/30 09:01:09;;;;;;;2.97;1.73;;;13.80;99.90;;;12.31;100.00;101096.09;2567923;30;136978;-38
2021/12/30 09:03:37;;;;;;;;;;;13.70;99.90;;;12.35;100.00;101107.47;2568755;30;138234;-38
2021/12/30 09:06:05;;;;;;;3.38;1.30;;;13.80;99.90;;;12.41;100.00;101098.38;2568272;30;137175;-38
2021/12/30 09:08:33;;;;;;;3.78;1.58;;;13.80;99.90;;;12.42;100.00;101099.22;2568166;30;137284;-38
2021/12/30 09:11:00;;;;;;;2.15;1.20;;;13.80;99.90;;;12.45;100.00;101093.31;2568880;30;137636;-38
2021/12/30 09:13:28;;;;;;;2.63;1.50;;;13.80;99.90;;;12.43;100.00;101089.97;2566694;30;138811;-38
2021/12/30 09:15:56;;;;;;;2.40;1.15;;;13.90;99.90;;;12.41;100.00;101095.66;2567176;30;137564;-38
2021/12/30 09:18:24;;;;;;;2.67;1.30;;;13.80;99.90;;;12.48;100.00;101088.25;2568591;30;137389;-38
2021/12/30 09:20:51;;;;;;;;;;;13.90;99.90;;;12.49;100.00;101098.16;2567960;30;137707;-38
2021/12/30 09:23:19;;;;;;;2.53;1.02;;;13.90;99.90;;;12.46;100.00;101095.81;2575732;30;142211;-38
2021/12/30 09:25:47;;;;;;;1.80;0.95;;;13.90;99.90;;;12.51;100.00;101104.25;2570866;30;137708;-40
2021/12/30 09:28:14;;;;;;;;;;;13.90;99.90;;;12.50;100.00;101105.31;2569612;30;136639;-40
2021/12/30 09:30:45;;;;;;;1.90;1.10;;;14.00;99.90;;;12.60;100.00;101117.66;2570816;30;136734;-40
2021/12/30 09:33:15;;;;;;;2.13;1.10;;;14.00;99.90;;;12.60;100.00;101118.50;2570974;30;138447;-40
2021/12/30 09:35:47;;;;;;;2.80;1.02;;;14.00;99.90;;;12.64;100.00;101114.28;2567963;30;137585;-40
2021/12/30 09:38:18;;;;;;;2.55;1.20;;;14.00;99.90;;;12.74;100.00;101124.75;2572039;30;137644;-40
2021/12/30 09:40:46;;;;;;;2.10;1.08;;;14.10;99.90;;;12.83;100.00;101130.78;2570677;30;137416;-40
2021/12/30 09:43:14;;;;;;;1.45;0.90;;;14.20;99.90;;;12.85;100.00;101125.91;2569830;30;138267;-40
2021/12/30 09:45:44;;;;;;;2.20;1.20;;;14.20;99.90;;;12.95;100.00;101130.91;2569046;30;137169;-40
2021/12/30 09:48:15;;;;;;;2.65;1.10;;;14.30;99.90;;;13.01;100.00;101121.84;2571585;30;138285;-40
2021/12/30 09:50:51;;;;;;;2.42;1.20;;;14.30;99.90;;;13.06;100.00;101124.75;2570750;30;138347;-40
2021/12/30 09:53:25;;;;;;;1.65;1.05;;;14.40;99.90;;;13.12;100.00;101120.25;2569361;30;138417;-40
2021/12/30 09:55:57;;;;;;;3.28;1.15;;;14.50;99.90;;;13.17;100.00;101120.47;2568977;30;137179;-40
2021/12/30 09:58:24;;;;;;;2.35;1.23;;;14.50;99.90;;;13.21;100.00;101131.78;2569201;30;137088;-40
2021/12/30 10:00:52;;;;;;;1.25;0.90;;;14.60;99.90;;;13.19;100.00;101121.06;2569198;30;137965;-40
2021/12/30 10:03:24;;;;;;;1.42;0.90;;;14.60;99.90;;;13.20;100.00;101122.75;2567938;30;138118;-40
2021/12/30 10:05:53;;;;;;;1.58;1.10;;;14.60;99.90;;;13.30;100.00;101133.22;2570017;30;138386;-40
2021/12/30 10:08:25;;;;;;;1.52;1.00;;;14.60;99.90;;;13.35;100.00;101135.25;2568911;30;138991;-40
2021/12/30 10:10:57;;;;;;;1.52;1.00;;;14.70;99.90;;;13.38;100.00;101135.66;2570161;30;137631;-40
2021/12/30 10:13:30;;;;;;;1.45;0.93;;;14.70;99.90;;;13.42;100.00;101143.44;2564973;30;138776;-40
2021/12/30 10:16:18;;;;;;;1.13;0.90;;;14.70;99.90;;;13.46;100.00;101137.31;2567873;30;137560;-40
2021/12/30 10:18:56;;;;;;;1.60;0.90;;;14.80;99.90;;;13.48;100.00;101140.69;2568889;30;138740;-40
2021/12/30 10:21:34;;;;;;;3.13;1.00;;;14.80;99.90;;;13.48;100.00;101153.53;2568873;30;137550;-41
2021/12/30 10:24:09;;;;;;;2.63;0.90;;;14.80;99.90;;;13.48;100.00;101139.81;2571542;30;137475;-40
2021/12/30 10:27:02;;;;;;;2.15;0.90;;;14.80;99.90;;;13.46;100.00;101152.91;2568743;30;137431;-40
2021/12/30 10:29:45;;;;;;;1.80;1.17;;;14.80;99.90;;;13.46;100.00;101158.38;2569394;30;138330;-40
2021/12/30 10:32:25;;;;;;;1.75;1.10;;;14.80;99.90;;;13.36;100.00;101156.97;2568715;30;137567;-40
2021/12/30 10:35:09;;;;;;;2.05;1.25;;;14.80;99.90;;;13.37;100.00;101158.66;2567460;30;137528;-40
2021/12/30 10:37:43;;;;;;;3.33;1.30;;;14.80;99.90;;;13.31;100.00;101156.81;2570725;30;137615;-40
2021/12/30 10:40:32;;;;;;;2.58;1.13;;;14.70;99.90;;;13.33;100.00;101159.31;2567436;30;138237;-40
2021/12/30 10:43:26;;;;;;;3.08;1.38;;;14.70;99.90;;;13.35;100.00;101159.91;2569497;30;138217;-40
2021/12/30 10:46:26;;;;;;;3.30;1.80;;;14.70;99.90;;;13.41;100.00;101160.94;2567730;30;139236;-40
2021/12/30 10:49:27;;;;;;;2.75;1.25;;;14.80;99.90;;;13.46;100.00;101166.63;2570136;30;137015;-40
2021/12/30 10:51:57;;;;;;;2.60;1.42;;;14.80;99.90;;;13.45;100.00;101151.22;2569678;30;138160;-40
2021/12/30 10:54:36;;;;;;;2.75;1.35;;;14.80;99.90;;;13.53;100.00;101161.94;2569138;30;138408;-40
2021/12/30 10:57:10;;;;;;;2.97;1.42;;;14.90;99.90;;;13.57;100.00;101168.66;2570464;30;139095;-40
2021/12/30 10:59:50;;;;;;;3.92;1.30;;;14.90;99.90;;;13.58;100.00;101166.72;2570363;30;139823;-40
2021/12/30 11:02:22;;;;;;;4.28;1.80;;;14.90;99.90;;;13.57;100.00;101167.78;2568771;30;137416;-40
2021/12/30 11:05:02;;;;;;;2.65;1.40;;;14.90;99.90;;;13.54;100.00;101165.50;2565562;30;137858;-40
2021/12/30 11:07:43;;;;;;;3.50;1.25;;;14.90;99.90;;;13.50;100.00;101171.44;2569404;30;137455;-40
2021/12/30 11:10:13;;;;;;;3.78;1.50;;;14.90;99.90;;;13.49;100.00;101168.91;2567775;30;138409;-40
2021/12/30 11:12:46;;;;;;;3.75;1.25;;;14.90;99.90;;;13.48;100.00;101168.09;2568804;30;138290;-40
2021/12/30 11:15:35;;;;;;;4.55;1.48;;;14.90;99.90;;;13.50;100.00;101173.31;2568552;30;137843;-40
2021/12/30 11:18:11;;;;;;;3.97;1.30;;;14.90;99.90;;;13.46;100.00;101170.22;2570067;30;139137;-40
2021/12/30 11:20:43;;;;;;;4.80;1.70;;;14.90;99.90;;;13.53;100.00;101170.16;2571580;30;137433;-40
2021/12/30 11:23:13;;;;;;;3.33;1.52;;;14.90;99.90;;;13.55;100.00;101167.19;2566497;30;137435;-40
2021/12/30 11:25:41;;;;;;;2.80;1.48;;;14.90;99.90;;;13.51;100.00;101147.59;2568578;30;138469;-40
2021/12/30 11:28:09;;;;;;;3.35;1.60;;;14.90;99.90;;;13.51;100.00;101150.31;2568837;30;138400;-40
2021/12/30 11:30:37;;;;;;;5.57;2.03;;;14.90;99.90;;;13.49;100.00;101160.69;2568264;30;138596;-40
2021/12/30 11:33:04;;;;;;;;;;;14.90;99.90;;;13.50;100.00;101160.47;2569689;30;138329;-40
2021/12/30 11:35:32;;;;;;;6.47;1.88;;;14.90;99.90;;;13.54;100.00;101154.53;2568592;30;137231;-40
2021/12/30 11:38:01;;;;;;;3.20;1.65;;;14.90;99.90;;;13.58;100.00;101164.84;2568253;30;138182;-40
2021/12/30 11:40:29;;;;;;;4.07;1.58;;;14.90;99.90;;;13.62;100.00;101155.09;2569312;30;138137;-40
2021/12/30 11:43:11;;;;;;;6.22;1.90;;;15.00;99.90;;;13.68;100.00;101161.59;2567483;30;138099;-40
2021/12/30 11:45:43;;;;;;;4.32;1.63;;;15.00;99.90;;;13.71;100.00;101165.78;2567145;30;136939;-40
2021/12/30 11:48:29;;;;;;;5.32;1.42;;;15.10;99.90;;;13.75;100.00;101153.28;2570922;30;138940;-40
2021/12/30 11:51:15;;;;;;;5.20;2.05;;;15.10;99.90;;;13.73;100.00;101152.66;2568692;30;136809;-40
2021/12/30 11:53:42;;;;;;;5.60;1.75;;;15.10;99.90;;;13.72;100.00;101156.47;2567453;30;138225;-40
2021/12/30 11:56:10;;;;;;;4.10;1.73;;;15.10;99.90;;;13.72;100.00;101159.22;2569654;30;136730;-40
2021/12/30 11:58:42;;;;;;;5.10;1.73;;;15.10;99.90;;;13.70;100.00;101147.63;2568866;30;138453;-40
2021/12/30 12:01:13;;;;;;;5.22;1.83;;;15.10;99.90;;;13.70;100.00;101150.38;2568699;30;137513;-40
2021/12/30 12:03:46;;;;;;;5.70;1.80;;;15.10;99.90;;;13.68;100.00;101158.84;2568859;30;138242;-40
2021/12/30 12:06:53;;;;;;;5.65;2.00;;;15.10;99.90;;;13.70;100.00;101139.41;2568220;30;137632;-40
2021/12/30 12:09:22;;;;;;;5.35;1.80;;;15.10;99.90;;;13.67;100.00;101146.22;2568934;30;138198;-40
2021/12/30 12:11:56;;;;;;;4.03;1.80;;;15.10;99.90;;;13.65;100.00;101137.34;2569184;30;138426;-40
2021/12/30 12:14:31;;;;;;;6.03;1.58;;;15.00;99.90;;;13.66;100.00;101152.75;2568643;30;137372;-40
2021/12/30 12:17:04;;;;;;;4.15;1.55;;;15.10;99.90;;;13.68;100.00;101147.03;2566587;30;139215;-40
2021/12/30 12:19:41;;;;;;;3.92;1.60;;;15.00;99.90;;;13.66;100.00;101139.88;2569730;30;137655;-40
2021/12/30 12:22:16;;;;;;;3.85;1.83;;;15.00;99.90;;;13.66;100.00;101142.63;2568123;30;137151;-40
2021/12/30 12:24:47;;;;;;;4.63;1.83;;;15.10;99.90;;;13.64;100.00;101144.75;2567399;30;139122;-39
2021/12/30 12:27:20;;;;;;;5.47;1.83;;;15.10;99.90;;;13.63;100.00;101151.28;2569709;30;137498;-40
2021/12/30 12:29:56;;;;;;;6.40;1.98;;;15.00;99.90;;;13.63;100.00;101145.81;2569513;30;137420;-40
2021/12/30 12:32:43;;;;;;;4.65;2.00;;;15.00;99.90;;;13.63;100.00;101151.28;2569890;30;136995;-39
2021/12/30 12:35:14;;;;;;;6.32;1.85;;;15.00;99.90;;;13.63;100.00;101154.03;2568199;30;137879;-40
2021/12/30 12:37:41;;;;;;;4.05;2.00;;;15.00;99.90;;;13.68;100.00;101141.53;2569324;30;136975;-40
2021/12/30 12:40:22;;;;;;;2.35;1.60;;;15.00;99.90;;;13.69;100.00;101155.03;2568941;30;136749;-40
2021/12/30 12:42:50;;;;;;;5.65;2.20;;;15.10;99.90;;;13.67;100.00;101151.69;2567568;30;136797;-40
2021/12/30 12:45:50;;;;;;;4.82;1.67;;;15.10;99.90;;;13.68;100.00;101156.09;2569726;30;136995;-40
2021/12/30 12:48:17;;;;;;;;;;;15.10;99.90;;;13.71;100.00;101154.81;2569510;30;136706;-40
2021/12/30 12:50:55;;;;;;;6.13;1.85;;;15.10;99.90;;;13.72;100.00;101142.78;2569025;30;138176;-40
2021/12/30 12:53:42;;;;;;;3.93;1.73;;;15.10;99.90;;;13.76;100.00;101149.47;2569832;30;136878;-40
2021/12/30 12:56:34;;;;;;;4.18;1.67;;;15.10;99.90;;;13.74;100.00;101151.59;2568862;30;137651;-40
2021/12/30 12:59:13;;;;;;;3.58;1.35;;;15.10;99.90;;;13.73;100.00;101150.78;2570309;30;138382;-40
2021/12/30 13:01:45;;;;;;;3.88;1.77;;;15.10;99.90;;;13.79;99.58;101157.25;2568435;30;137307;-40
2021/12/30 13:04:13;;;;;;;4.45;1.60;;;15.10;99.90;;;13.78;99.85;101155.56;2568282;30;138313;-40
2021/12/30 13:06:44;;;;;;;;;;;15.20;99.90;;;13.84;99.60;101165.66;2568586;30;138150;-40
2021/12/30 13:09:16;;;;;;;3.72;1.70;;;15.20;99.90;;;13.85;99.27;101150.88;2569152;30;137196;-40
2021/12/30 13:11:50;;;;;;;3.08;1.60;;;15.20;99.90;;;13.83;99.91;101158.50;2569181;30;137874;-40
2021/12/30 13:14:29;;;;;;;3.63;1.33;;;15.20;99.90;;;13.83;100.00;101163.97;2568683;30;137425;-39
2021/12/30 13:17:03;;;;;;;4.28;1.63;;;15.20;99.90;;;13.84;99.21;101162.91;2568410;30;138324;-40
2021/12/30 13:19:36;;;;;;;6.72;1.90;;;15.20;99.90;;;13.91;98.83;101154.59;2571611;30;136800;-40
2021/12/30 13:22:12;;;;;;;6.22;1.88;;;15.30;99.90;;;13.94;98.06;101156.91;2565903;30;138484;-40
2021/12/30 13:24:59;;;;;;;3.38;1.30;;;15.30;99.90;;;13.99;98.02;101156.22;2568892;30;137431;-40
2021/12/30 13:27:44;;;;;;;4.88;1.58;;;15.30;99.90;;;14.00;97.15;101158.75;2567989;30;137356;-40
2021/12/30 13:30:24;;;;;;;3.20;1.45;;;15.40;99.90;;;14.06;97.59;101157.81;2571806;30;138273;-40
2021/12/30 13:32:54;;;;;;;3.75;1.40;;;15.40;99.90;;;14.07;97.58;101164.16;2570421;30;136664;-40
2021/12/30 13:35:31;;;;;;;3.58;1.30;;;15.40;99.90;;;14.13;96.58;101168.72;2568810;30;138486;-40
2021/12/30 13:38:05;;;;;;;4.68;1.60;;;15.40;99.90;;;14.13;96.42;101174.22;2569266;30;137242;-40
2021/12/30 13:40:37;;;;;;;2.47;1.30;;;15.50;99.90;;;14.09;96.18;101175.75;2570788;30;136966;-40
2021/12/30 13:43:08;;;;;;;2.63;1.30;;;15.50;99.90;;;14.08;96.97;101185.03;2569754;30;139058;-40
2021/12/30 13:45:49;;;;;;;3.92;1.55;;;15.50;99.90;;;14.07;97.07;101183.38;2568999;30;136798;-40